Main page
METAR-TAF:

METAR-TAF

Airports :

Wanaham

Lifou, New Caledonia

latitude: 20-46S, longitude: 167-14E, elevation: 28 m

METAR: missing

Time: 13:13 (02:13 UTC)

Forecast

The report was made 3 hours and 13 minutes ago, at 23:00 UTC
Forecast valid from 07 at 00 UTC to 07 at 24 UTC
Wind 12 kt from the South/Southeast
Visibility 10 km or more
Few clouds at a height of 1500 ft
Broken clouds at a height of 2500 ft
Temporary
from 07 at 00 UTC to 07 at 15 UTC
Broken clouds at a height of 1300 ft
Few clouds at a height of 2000 ft, Towering cumulus.
rain showers
Probability 30% :
Temporary
from 07 at 00 UTC to 07 at 05 UTC
Wind 15 kt from the Southeast with gusts up to 25 kt
Temporary
from 07 at 15 UTC to 07 at 22 UTC
Visibility: 4000 m
Broken clouds at a height of 1000 ft
Scattered clouds at a height of 1800 ft, Towering cumulus.
rain showers

TAF: NWWL 062300Z 0700/0724 15012KT 9999 FEW015 BKN025 TEMPO 0700/0715 SHRA BKN013 FEW020TCU PROB30 TEMPO 0700/0705 14015G25KT TEMPO 0715/0722 4000 SHRA BKN010 SCT018TCU

Weather observations and forecasts of more than 4000 airports (METAR and TAF reports).

The available stations are represented by yellow and red dots on the map.

Hover mouse over dot to see the name of the station.

Then click to see weather observations and forecasts.

To change the map : click on the green buttons with a black cross to zoom in, on the green button with a dash to zoom out, or on the green arrows for adjacent maps.


METAR-TAF: